sensor_id;sensor_type;location;lat;lon;timestamp;temperature;humidity
43561;DHT22;32305;46.410;17.394;2022-09-09T00:00:32;25.70;57.40
43561;DHT22;32305;46.410;17.394;2022-09-09T00:03:11;25.70;57.40
43561;DHT22;32305;46.410;17.394;2022-09-09T00:05:48;25.60;57.30
43561;DHT22;32305;46.410;17.394;2022-09-09T00:08:20;25.70;57.40
43561;DHT22;32305;46.410;17.394;2022-09-09T00:10:56;25.60;57.30
43561;DHT22;32305;46.410;17.394;2022-09-09T00:13:42;25.70;57.30
43561;DHT22;32305;46.410;17.394;2022-09-09T00:16:20;25.70;57.40
43561;DHT22;32305;46.410;17.394;2022-09-09T00:19:02;25.70;57.30
43561;DHT22;32305;46.410;17.394;2022-09-09T00:21:43;25.70;57.30
43561;DHT22;32305;46.410;17.394;2022-09-09T00:24:32;25.60;57.20
43561;DHT22;32305;46.410;17.394;2022-09-09T00:30:13;25.70;57.30
43561;DHT22;32305;46.410;17.394;2022-09-09T00:32:41;25.70;57.30
43561;DHT22;32305;46.410;17.394;2022-09-09T00:35:34;25.70;57.30
43561;DHT22;32305;46.410;17.394;2022-09-09T00:38:15;25.60;57.20
43561;DHT22;32305;46.410;17.394;2022-09-09T00:40:52;25.60;57.20
43561;DHT22;32305;46.410;17.394;2022-09-09T00:43:32;25.70;57.30
43561;DHT22;32305;46.410;17.394;2022-09-09T00:46:16;25.60;57.20
43561;DHT22;32305;46.410;17.394;2022-09-09T00:49:20;25.60;57.20
43561;DHT22;32305;46.410;17.394;2022-09-09T00:57:54;25.60;57.20
43561;DHT22;32305;46.410;17.394;2022-09-09T01:00:32;25.60;57.20
43561;DHT22;32305;46.410;17.394;2022-09-09T01:03:32;25.60;57.20
43561;DHT22;32305;46.410;17.394;2022-09-09T01:06:18;25.60;57.20
43561;DHT22;32305;46.410;17.394;2022-09-09T01:09:02;25.60;57.20
43561;DHT22;32305;46.410;17.394;2022-09-09T01:11:48;25.60;57.20
43561;DHT22;32305;46.410;17.394;2022-09-09T01:14:42;25.60;57.20
43561;DHT22;32305;46.410;17.394;2022-09-09T01:17:28;25.60;57.20
43561;DHT22;32305;46.410;17.394;2022-09-09T01:20:14;25.60;57.20
43561;DHT22;32305;46.410;17.394;2022-09-09T01:23:15;25.60;57.30
43561;DHT22;32305;46.410;17.394;2022-09-09T01:26:04;25.60;57.30
43561;DHT22;32305;46.410;17.394;2022-09-09T01:28:35;25.60;57.40
43561;DHT22;32305;46.410;17.394;2022-09-09T01:31:06;25.60;57.50
43561;DHT22;32305;46.410;17.394;2022-09-09T01:33:34;25.60;57.60
43561;DHT22;32305;46.410;17.394;2022-09-09T01:36:20;25.60;57.60
43561;DHT22;32305;46.410;17.394;2022-09-09T01:38:48;25.60;57.70
43561;DHT22;32305;46.410;17.394;2022-09-09T01:41:15;25.60;57.80
43561;DHT22;32305;46.410;17.394;2022-09-09T01:43:42;25.60;57.90
43561;DHT22;32305;46.410;17.394;2022-09-09T01:46:11;25.60;57.90
43561;DHT22;32305;46.410;17.394;2022-09-09T01:48:39;25.60;58.00
43561;DHT22;32305;46.410;17.394;2022-09-09T01:51:08;25.60;58.00
43561;DHT22;32305;46.410;17.394;2022-09-09T01:53:38;25.60;57.90
43561;DHT22;32305;46.410;17.394;2022-09-09T01:56:34;25.50;57.80
43561;DHT22;32305;46.410;17.394;2022-09-09T01:59:26;25.60;57.90
43561;DHT22;32305;46.410;17.394;2022-09-09T02:02:23;25.60;57.80
43561;DHT22;32305;46.410;17.394;2022-09-09T02:04:57;25.60;57.80
43561;DHT22;32305;46.410;17.394;2022-09-09T02:07:45;25.60;57.70
43561;DHT22;32305;46.410;17.394;2022-09-09T02:10:21;25.60;57.70
43561;DHT22;32305;46.410;17.394;2022-09-09T02:12:55;25.60;57.60
43561;DHT22;32305;46.410;17.394;2022-09-09T02:15:53;25.60;57.60
43561;DHT22;32305;46.410;17.394;2022-09-09T02:18:27;25.60;57.50
43561;DHT22;32305;46.410;17.394;2022-09-09T02:20:57;25.60;57.50
43561;DHT22;32305;46.410;17.394;2022-09-09T02:23:25;25.60;57.40
43561;DHT22;32305;46.410;17.394;2022-09-09T02:25:53;25.60;57.40
43561;DHT22;32305;46.410;17.394;2022-09-09T02:28:25;25.60;57.40
43561;DHT22;32305;46.410;17.394;2022-09-09T02:30:53;25.60;57.30
43561;DHT22;32305;46.410;17.394;2022-09-09T02:33:25;25.60;57.30
43561;DHT22;32305;46.410;17.394;2022-09-09T02:35:54;25.60;57.30
43561;DHT22;32305;46.410;17.394;2022-09-09T02:38:26;25.60;57.30
43561;DHT22;32305;46.410;17.394;2022-09-09T02:40:55;25.60;57.20
43561;DHT22;32305;46.410;17.394;2022-09-09T02:43:22;25.60;57.30
43561;DHT22;32305;46.410;17.394;2022-09-09T02:49:03;25.60;57.20
43561;DHT22;32305;46.410;17.394;2022-09-09T02:52:00;25.60;57.20
43561;DHT22;32305;46.410;17.394;2022-09-09T02:54:31;25.60;57.20
43561;DHT22;32305;46.410;17.394;2022-09-09T02:57:21;25.60;57.20
43561;DHT22;32305;46.410;17.394;2022-09-09T02:59:50;25.60;57.20
43561;DHT22;32305;46.410;17.394;2022-09-09T03:02:18;25.60;57.20
43561;DHT22;32305;46.410;17.394;2022-09-09T03:04:46;25.60;57.20
43561;DHT22;32305;46.410;17.394;2022-09-09T03:07:18;25.60;57.20
43561;DHT22;32305;46.410;17.394;2022-09-09T03:09:46;25.60;57.20
43561;DHT22;32305;46.410;17.394;2022-09-09T03:12:13;25.60;57.20
43561;DHT22;32305;46.410;17.394;2022-09-09T03:14:40;25.60;57.20
43561;DHT22;32305;46.410;17.394;2022-09-09T03:17:07;25.60;57.10
43561;DHT22;32305;46.410;17.394;2022-09-09T03:19:35;25.60;57.10
43561;DHT22;32305;46.410;17.394;2022-09-09T03:22:04;25.60;57.10
43561;DHT22;32305;46.410;17.394;2022-09-09T03:24:31;25.60;57.10
43561;DHT22;32305;46.410;17.394;2022-09-09T03:26:58;25.60;57.10
43561;DHT22;32305;46.410;17.394;2022-09-09T03:29:25;25.60;57.10
43561;DHT22;32305;46.410;17.394;2022-09-09T03:31:52;25.60;57.10
43561;DHT22;32305;46.410;17.394;2022-09-09T03:34:19;25.50;57.60
43561;DHT22;32305;46.410;17.394;2022-09-09T03:36:46;25.60;57.10
43561;DHT22;32305;46.410;17.394;2022-09-09T03:39:15;25.60;57.10
43561;DHT22;32305;46.410;17.394;2022-09-09T03:41:42;25.60;57.10
43561;DHT22;32305;46.410;17.394;2022-09-09T03:44:12;25.60;57.10
43561;DHT22;32305;46.410;17.394;2022-09-09T03:46:39;25.60;57.10
43561;DHT22;32305;46.410;17.394;2022-09-09T03:49:06;25.50;57.00
43561;DHT22;32305;46.410;17.394;2022-09-09T03:51:33;25.60;57.10
43561;DHT22;32305;46.410;17.394;2022-09-09T03:54:02;25.50;57.00
43561;DHT22;32305;46.410;17.394;2022-09-09T03:56:31;25.50;57.00
43561;DHT22;32305;46.410;17.394;2022-09-09T03:58:58;25.50;56.90
43561;DHT22;32305;46.410;17.394;2022-09-09T04:01:26;25.60;57.00
43561;DHT22;32305;46.410;17.394;2022-09-09T04:03:53;25.60;57.00
43561;DHT22;32305;46.410;17.394;2022-09-09T04:06:21;25.50;56.90
43561;DHT22;32305;46.410;17.394;2022-09-09T04:08:49;25.60;56.90
43561;DHT22;32305;46.410;17.394;2022-09-09T04:11:17;25.50;56.90
43561;DHT22;32305;46.410;17.394;2022-09-09T04:13:44;25.50;56.90
43561;DHT22;32305;46.410;17.394;2022-09-09T04:16:12;25.60;56.90
43561;DHT22;32305;46.410;17.394;2022-09-09T04:18:43;25.60;56.90
43561;DHT22;32305;46.410;17.394;2022-09-09T04:21:10;25.60;56.90
43561;DHT22;32305;46.410;17.394;2022-09-09T04:23:39;25.60;56.80
43561;DHT22;32305;46.410;17.394;2022-09-09T04:26:06;25.60;56.80
43561;DHT22;32305;46.410;17.394;2022-09-09T04:28:35;25.60;56.80
43561;DHT22;32305;46.410;17.394;2022-09-09T04:31:12;25.60;56.80
43561;DHT22;32305;46.410;17.394;2022-09-09T04:33:41;25.60;56.70
43561;DHT22;32305;46.410;17.394;2022-09-09T04:36:08;25.60;56.70
43561;DHT22;32305;46.410;17.394;2022-09-09T04:38:36;25.60;56.60
43561;DHT22;32305;46.410;17.394;2022-09-09T04:41:03;25.60;56.60
43561;DHT22;32305;46.410;17.394;2022-09-09T04:43:31;25.60;56.60
43561;DHT22;32305;46.410;17.394;2022-09-09T04:45:58;25.60;56.60
43561;DHT22;32305;46.410;17.394;2022-09-09T04:48:28;25.60;56.60
43561;DHT22;32305;46.410;17.394;2022-09-09T04:50:59;25.60;56.60
43561;DHT22;32305;46.410;17.394;2022-09-09T04:53:26;25.60;57.20
43561;DHT22;32305;46.410;17.394;2022-09-09T04:56:02;25.60;56.60
43561;DHT22;32305;46.410;17.394;2022-09-09T04:58:29;25.60;56.60
43561;DHT22;32305;46.410;17.394;2022-09-09T05:01:08;25.60;56.60
43561;DHT22;32305;46.410;17.394;2022-09-09T05:03:36;25.50;56.50
43561;DHT22;32305;46.410;17.394;2022-09-09T05:06:10;25.60;56.60
43561;DHT22;32305;46.410;17.394;2022-09-09T05:08:39;25.60;56.60
43561;DHT22;32305;46.410;17.394;2022-09-09T05:11:18;25.50;56.50
43561;DHT22;32305;46.410;17.394;2022-09-09T05:13:46;25.50;56.50
43561;DHT22;32305;46.410;17.394;2022-09-09T05:16:14;25.40;56.70
43561;DHT22;32305;46.410;17.394;2022-09-09T05:18:41;25.20;56.90
43561;DHT22;32305;46.410;17.394;2022-09-09T05:21:10;25.00;56.70
43561;DHT22;32305;46.410;17.394;2022-09-09T05:23:38;24.70;56.00
43561;DHT22;32305;46.410;17.394;2022-09-09T05:26:07;24.40;55.20
43561;DHT22;32305;46.410;17.394;2022-09-09T05:28:35;24.10;54.40
43561;DHT22;32305;46.410;17.394;2022-09-09T05:31:05;23.80;53.50
43561;DHT22;32305;46.410;17.394;2022-09-09T05:33:36;23.50;53.30
43561;DHT22;32305;46.410;17.394;2022-09-09T05:36:05;23.10;52.80
43561;DHT22;32305;46.410;17.394;2022-09-09T05:38:35;22.80;52.80
43561;DHT22;32305;46.410;17.394;2022-09-09T05:41:03;22.40;52.60
43561;DHT22;32305;46.410;17.394;2022-09-09T05:43:30;22.10;53.00
43561;DHT22;32305;46.410;17.394;2022-09-09T05:46:01;21.80;53.50
43561;DHT22;32305;46.410;17.394;2022-09-09T05:48:30;21.50;53.70
43561;DHT22;32305;46.410;17.394;2022-09-09T05:50:59;21.20;54.80
43561;DHT22;32305;46.410;17.394;2022-09-09T05:53:27;21.00;56.00
43561;DHT22;32305;46.410;17.394;2022-09-09T05:56:05;20.90;55.50
43561;DHT22;32305;46.410;17.394;2022-09-09T05:58:34;20.70;55.40
43561;DHT22;32305;46.410;17.394;2022-09-09T06:01:19;20.50;55.30
43561;DHT22;32305;46.410;17.394;2022-09-09T06:03:48;20.30;56.10
43561;DHT22;32305;46.410;17.394;2022-09-09T06:06:19;20.20;56.20
43561;DHT22;32305;46.410;17.394;2022-09-09T06:08:54;20.00;56.40
43561;DHT22;32305;46.410;17.394;2022-09-09T06:11:28;19.90;57.80
43561;DHT22;32305;46.410;17.394;2022-09-09T06:13:58;19.70;57.20
43561;DHT22;32305;46.410;17.394;2022-09-09T06:16:28;19.60;57.30
43561;DHT22;32305;46.410;17.394;2022-09-09T06:18:56;19.50;57.70
43561;DHT22;32305;46.410;17.394;2022-09-09T06:21:27;19.40;58.00
43561;DHT22;32305;46.410;17.394;2022-09-09T06:23:54;19.30;57.60
43561;DHT22;32305;46.410;17.394;2022-09-09T06:26:32;19.20;58.40
43561;DHT22;32305;46.410;17.394;2022-09-09T06:29:00;19.20;58.90
43561;DHT22;32305;46.410;17.394;2022-09-09T06:31:32;19.20;58.10
43561;DHT22;32305;46.410;17.394;2022-09-09T06:34:02;19.10;58.90
43561;DHT22;32305;46.410;17.394;2022-09-09T06:36:33;19.10;59.40
43561;DHT22;32305;46.410;17.394;2022-09-09T06:39:01;19.10;58.60
43561;DHT22;32305;46.410;17.394;2022-09-09T06:41:30;19.00;58.20
43561;DHT22;32305;46.410;17.394;2022-09-09T06:43:58;18.90;58.30
43561;DHT22;32305;46.410;17.394;2022-09-09T06:46:27;18.90;58.40
43561;DHT22;32305;46.410;17.394;2022-09-09T06:48:55;18.80;57.70
43561;DHT22;32305;46.410;17.394;2022-09-09T06:51:26;18.80;58.80
43561;DHT22;32305;46.410;17.394;2022-09-09T06:53:56;18.70;58.80
43561;DHT22;32305;46.410;17.394;2022-09-09T06:56:29;18.70;57.90
43561;DHT22;32305;46.410;17.394;2022-09-09T06:58:59;18.60;58.50
43561;DHT22;32305;46.410;17.394;2022-09-09T07:01:33;18.60;59.40
43561;DHT22;32305;46.410;17.394;2022-09-09T07:04:01;18.50;59.60
43561;DHT22;32305;46.410;17.394;2022-09-09T07:06:32;18.60;58.10
43561;DHT22;32305;46.410;17.394;2022-09-09T07:09:02;18.50;59.90
43561;DHT22;32305;46.410;17.394;2022-09-09T07:11:33;18.60;59.20
43561;DHT22;32305;46.410;17.394;2022-09-09T07:14:00;18.60;58.50
43561;DHT22;32305;46.410;17.394;2022-09-09T07:16:28;18.60;58.70
43561;DHT22;32305;46.410;17.394;2022-09-09T07:18:56;18.60;58.80
43561;DHT22;32305;46.410;17.394;2022-09-09T07:21:26;18.60;58.20
43561;DHT22;32305;46.410;17.394;2022-09-09T07:23:53;18.60;58.30
43561;DHT22;32305;46.410;17.394;2022-09-09T07:26:23;18.60;59.30
43561;DHT22;32305;46.410;17.394;2022-09-09T07:28:50;18.70;59.10
43561;DHT22;32305;46.410;17.394;2022-09-09T07:31:21;18.60;59.20
43561;DHT22;32305;46.410;17.394;2022-09-09T07:33:48;18.60;59.20
43561;DHT22;32305;46.410;17.394;2022-09-09T07:36:24;18.60;58.70
43561;DHT22;32305;46.410;17.394;2022-09-09T07:39:03;18.60;58.70
43561;DHT22;32305;46.410;17.394;2022-09-09T07:41:40;18.50;58.60
43561;DHT22;32305;46.410;17.394;2022-09-09T07:44:10;18.50;59.00
43561;DHT22;32305;46.410;17.394;2022-09-09T07:46:39;18.40;58.80
43561;DHT22;32305;46.410;17.394;2022-09-09T07:49:07;18.40;58.90
43561;DHT22;32305;46.410;17.394;2022-09-09T07:51:38;18.40;59.20
43561;DHT22;32305;46.410;17.394;2022-09-09T07:54:09;18.40;59.00
43561;DHT22;32305;46.410;17.394;2022-09-09T07:56:36;18.40;59.60
43561;DHT22;32305;46.410;17.394;2022-09-09T07:59:06;18.40;59.60
43561;DHT22;32305;46.410;17.394;2022-09-09T08:01:40;18.50;60.30
43561;DHT22;32305;46.410;17.394;2022-09-09T08:04:10;18.40;60.40
43561;DHT22;32305;46.410;17.394;2022-09-09T08:06:49;18.50;60.30
43561;DHT22;32305;46.410;17.394;2022-09-09T08:09:16;18.50;60.10
43561;DHT22;32305;46.410;17.394;2022-09-09T08:11:44;18.60;60.00
43561;DHT22;32305;46.410;17.394;2022-09-09T08:14:12;18.60;60.20
43561;DHT22;32305;46.410;17.394;2022-09-09T08:16:43;18.60;59.50
43561;DHT22;32305;46.410;17.394;2022-09-09T08:19:11;18.60;59.70
43561;DHT22;32305;46.410;17.394;2022-09-09T08:21:39;18.60;59.50
43561;DHT22;32305;46.410;17.394;2022-09-09T08:24:09;18.60;59.60
43561;DHT22;32305;46.410;17.394;2022-09-09T08:26:39;18.60;59.50
43561;DHT22;32305;46.410;17.394;2022-09-09T08:29:09;18.60;59.70
43561;DHT22;32305;46.410;17.394;2022-09-09T08:31:40;18.60;60.20
43561;DHT22;32305;46.410;17.394;2022-09-09T08:34:07;18.70;60.10
43561;DHT22;32305;46.410;17.394;2022-09-09T08:36:38;18.70;59.70
43561;DHT22;32305;46.410;17.394;2022-09-09T08:39:06;18.80;59.40
43561;DHT22;32305;46.410;17.394;2022-09-09T08:42:13;18.80;59.70
43561;DHT22;32305;46.410;17.394;2022-09-09T08:48:21;18.90;59.40
43561;DHT22;32305;46.410;17.394;2022-09-09T08:50:52;18.90;59.30
43561;DHT22;32305;46.410;17.394;2022-09-09T08:53:29;18.90;59.60
43561;DHT22;32305;46.410;17.394;2022-09-09T08:56:02;19.00;59.50
43561;DHT22;32305;46.410;17.394;2022-09-09T08:58:32;19.00;59.30
43561;DHT22;32305;46.410;17.394;2022-09-09T09:07:39;19.10;59.30
43561;DHT22;32305;46.410;17.394;2022-09-09T09:10:42;19.00;59.20
43561;DHT22;32305;46.410;17.394;2022-09-09T09:13:22;19.10;59.60
43561;DHT22;32305;46.410;17.394;2022-09-09T09:16:02;19.10;59.40
43561;DHT22;32305;46.410;17.394;2022-09-09T09:18:33;19.10;59.30
43561;DHT22;32305;46.410;17.394;2022-09-09T09:21:15;19.20;59.90
43561;DHT22;32305;46.410;17.394;2022-09-09T09:23:55;19.20;59.70
43561;DHT22;32305;46.410;17.394;2022-09-09T09:26:34;19.20;60.10
43561;DHT22;32305;46.410;17.394;2022-09-09T09:29:10;19.30;60.10
43561;DHT22;32305;46.410;17.394;2022-09-09T09:31:38;19.30;59.50
43561;DHT22;32305;46.410;17.394;2022-09-09T09:34:07;19.30;59.10
43561;DHT22;32305;46.410;17.394;2022-09-09T09:36:45;19.40;59.60
43561;DHT22;32305;46.410;17.394;2022-09-09T09:39:31;19.40;60.00
43561;DHT22;32305;46.410;17.394;2022-09-09T09:42:23;19.40;59.10
43561;DHT22;32305;46.410;17.394;2022-09-09T09:44:51;19.40;58.90
43561;DHT22;32305;46.410;17.394;2022-09-09T09:47:23;19.40;58.40
43561;DHT22;32305;46.410;17.394;2022-09-09T09:49:58;19.40;58.30
43561;DHT22;32305;46.410;17.394;2022-09-09T09:52:29;19.50;58.10
43561;DHT22;32305;46.410;17.394;2022-09-09T09:54:58;19.40;58.00
43561;DHT22;32305;46.410;17.394;2022-09-09T09:57:33;19.40;57.80
43561;DHT22;32305;46.410;17.394;2022-09-09T10:00:19;19.50;58.10
43561;DHT22;32305;46.410;17.394;2022-09-09T10:02:49;19.50;57.90
43561;DHT22;32305;46.410;17.394;2022-09-09T10:05:22;19.50;58.00
43561;DHT22;32305;46.410;17.394;2022-09-09T10:08:12;19.50;58.00
43561;DHT22;32305;46.410;17.394;2022-09-09T10:14:03;19.50;57.50
43561;DHT22;32305;46.410;17.394;2022-09-09T10:16:52;19.60;57.10
43561;DHT22;32305;46.410;17.394;2022-09-09T10:19:31;19.60;56.80
43561;DHT22;32305;46.410;17.394;2022-09-09T10:22:14;19.50;56.80
43561;DHT22;32305;46.410;17.394;2022-09-09T10:25:11;19.60;56.70
43561;DHT22;32305;46.410;17.394;2022-09-09T10:31:17;19.50;56.80
43561;DHT22;32305;46.410;17.394;2022-09-09T10:34:01;19.50;56.60
43561;DHT22;32305;46.410;17.394;2022-09-09T10:36:30;19.60;56.60
43561;DHT22;32305;46.410;17.394;2022-09-09T10:39:10;19.60;56.90
43561;DHT22;32305;46.410;17.394;2022-09-09T10:42:09;19.60;57.00
43561;DHT22;32305;46.410;17.394;2022-09-09T10:48:06;19.70;56.40
43561;DHT22;32305;46.410;17.394;2022-09-09T10:50:55;19.60;56.90
43561;DHT22;32305;46.410;17.394;2022-09-09T10:56:29;19.70;57.30
43561;DHT22;32305;46.410;17.394;2022-09-09T10:59:12;19.70;57.60
43561;DHT22;32305;46.410;17.394;2022-09-09T11:01:58;19.70;57.40
43561;DHT22;32305;46.410;17.394;2022-09-09T11:04:31;19.70;58.00
43561;DHT22;32305;46.410;17.394;2022-09-09T11:07:07;19.70;58.10
43561;DHT22;32305;46.410;17.394;2022-09-09T11:09:49;19.70;58.30
43561;DHT22;32305;46.410;17.394;2022-09-09T11:12:22;19.70;57.10
43561;DHT22;32305;46.410;17.394;2022-09-09T11:14:57;19.70;57.30
43561;DHT22;32305;46.410;17.394;2022-09-09T11:17:36;19.70;57.40
43561;DHT22;32305;46.410;17.394;2022-09-09T11:20:11;19.70;57.60
43561;DHT22;32305;46.410;17.394;2022-09-09T11:22:47;19.70;57.30
43561;DHT22;32305;46.410;17.394;2022-09-09T11:25:21;19.80;57.20
43561;DHT22;32305;46.410;17.394;2022-09-09T11:34:30;19.90;56.10
43561;DHT22;32305;46.410;17.394;2022-09-09T11:37:15;19.90;55.70
43561;DHT22;32305;46.410;17.394;2022-09-09T11:40:00;19.90;55.70
43561;DHT22;32305;46.410;17.394;2022-09-09T11:42:32;19.80;55.60
43561;DHT22;32305;46.410;17.394;2022-09-09T11:45:15;19.80;56.10
43561;DHT22;32305;46.410;17.394;2022-09-09T11:47:58;19.80;56.10
43561;DHT22;32305;46.410;17.394;2022-09-09T11:50:31;19.80;56.10
43561;DHT22;32305;46.410;17.394;2022-09-09T11:53:19;19.90;55.90
43561;DHT22;32305;46.410;17.394;2022-09-09T11:56:10;19.90;55.50
43561;DHT22;32305;46.410;17.394;2022-09-09T11:58:43;19.90;55.40
43561;DHT22;32305;46.410;17.394;2022-09-09T12:01:15;20.00;56.10
43561;DHT22;32305;46.410;17.394;2022-09-09T12:03:49;20.00;56.00
43561;DHT22;32305;46.410;17.394;2022-09-09T12:06:32;20.00;56.10
43561;DHT22;32305;46.410;17.394;2022-09-09T12:09:08;20.00;56.20
43561;DHT22;32305;46.410;17.394;2022-09-09T12:11:37;20.10;56.60
43561;DHT22;32305;46.410;17.394;2022-09-09T12:14:17;20.20;58.00
43561;DHT22;32305;46.410;17.394;2022-09-09T12:16:45;20.70;57.50
43561;DHT22;32305;46.410;17.394;2022-09-09T12:19:20;21.40;56.20
43561;DHT22;32305;46.410;17.394;2022-09-09T12:22:37;22.00;54.70
43561;DHT22;32305;46.410;17.394;2022-09-09T12:27:46;23.20;52.10
43561;DHT22;32305;46.410;17.394;2022-09-09T12:30:15;23.70;51.40
43561;DHT22;32305;46.410;17.394;2022-09-09T12:32:42;24.10;51.00
43561;DHT22;32305;46.410;17.394;2022-09-09T12:35:20;24.40;50.20
43561;DHT22;32305;46.410;17.394;2022-09-09T12:37:56;24.60;50.30
43561;DHT22;32305;46.410;17.394;2022-09-09T12:40:27;24.90;49.50
43561;DHT22;32305;46.410;17.394;2022-09-09T12:42:55;25.10;48.00
43561;DHT22;32305;46.410;17.394;2022-09-09T12:45:24;25.30;47.40
43561;DHT22;32305;46.410;17.394;2022-09-09T12:48:00;25.50;47.40
43561;DHT22;32305;46.410;17.394;2022-09-09T12:58:13;26.00;46.70
43561;DHT22;32305;46.410;17.394;2022-09-09T13:00:51;26.10;51.20
43561;DHT22;32305;46.410;17.394;2022-09-09T13:03:20;25.90;50.40
43561;DHT22;32305;46.410;17.394;2022-09-09T13:05:49;25.40;48.50
43561;DHT22;32305;46.410;17.394;2022-09-09T13:16:35;23.70;48.60
43561;DHT22;32305;46.410;17.394;2022-09-09T13:19:13;23.10;48.60
43561;DHT22;32305;46.410;17.394;2022-09-09T13:21:42;22.70;49.10
43561;DHT22;32305;46.410;17.394;2022-09-09T13:24:31;22.30;49.70
43561;DHT22;32305;46.410;17.394;2022-09-09T13:27:02;21.90;49.80
43561;DHT22;32305;46.410;17.394;2022-09-09T13:29:31;21.60;50.40
43561;DHT22;32305;46.410;17.394;2022-09-09T13:32:18;21.30;51.00
43561;DHT22;32305;46.410;17.394;2022-09-09T13:35:00;21.00;51.30
43561;DHT22;32305;46.410;17.394;2022-09-09T13:37:35;20.80;51.90
43561;DHT22;32305;46.410;17.394;2022-09-09T13:40:04;20.60;53.10
43561;DHT22;32305;46.410;17.394;2022-09-09T13:42:38;20.50;53.30
43561;DHT22;32305;46.410;17.394;2022-09-09T13:45:17;20.40;53.90
43561;DHT22;32305;46.410;17.394;2022-09-09T13:47:48;20.30;54.60
43561;DHT22;32305;46.410;17.394;2022-09-09T13:50:25;20.20;55.10
43561;DHT22;32305;46.410;17.394;2022-09-09T13:52:57;20.20;55.20
43561;DHT22;32305;46.410;17.394;2022-09-09T13:55:27;20.10;55.50
43561;DHT22;32305;46.410;17.394;2022-09-09T13:58:00;20.10;55.70
43561;DHT22;32305;46.410;17.394;2022-09-09T14:00:30;20.10;55.80
43561;DHT22;32305;46.410;17.394;2022-09-09T14:02:58;20.10;55.70
43561;DHT22;32305;46.410;17.394;2022-09-09T14:05:32;20.10;55.80
43561;DHT22;32305;46.410;17.394;2022-09-09T14:08:00;20.00;56.20
43561;DHT22;32305;46.410;17.394;2022-09-09T14:10:27;20.00;56.30
43561;DHT22;32305;46.410;17.394;2022-09-09T14:12:54;20.00;56.40
43561;DHT22;32305;46.410;17.394;2022-09-09T14:15:22;20.00;56.70
43561;DHT22;32305;46.410;17.394;2022-09-09T14:17:49;20.00;56.50
43561;DHT22;32305;46.410;17.394;2022-09-09T14:20:19;20.00;56.50
43561;DHT22;32305;46.410;17.394;2022-09-09T14:22:46;20.00;56.70
43561;DHT22;32305;46.410;17.394;2022-09-09T14:25:13;20.00;56.50
43561;DHT22;32305;46.410;17.394;2022-09-09T14:27:41;19.90;56.70
43561;DHT22;32305;46.410;17.394;2022-09-09T14:30:09;19.90;56.70
43561;DHT22;32305;46.410;17.394;2022-09-09T14:32:37;19.90;56.80
43561;DHT22;32305;46.410;17.394;2022-09-09T14:35:04;19.90;56.70
43561;DHT22;32305;46.410;17.394;2022-09-09T14:37:31;19.90;56.60
43561;DHT22;32305;46.410;17.394;2022-09-09T14:39:58;19.90;56.80
43561;DHT22;32305;46.410;17.394;2022-09-09T14:42:26;19.80;57.00
43561;DHT22;32305;46.410;17.394;2022-09-09T14:44:53;19.80;57.00
43561;DHT22;32305;46.410;17.394;2022-09-09T14:47:20;19.80;57.00
43561;DHT22;32305;46.410;17.394;2022-09-09T14:49:47;19.80;56.80
43561;DHT22;32305;46.410;17.394;2022-09-09T14:52:16;19.80;57.60
43561;DHT22;32305;46.410;17.394;2022-09-09T14:54:43;19.80;58.60
43561;DHT22;32305;46.410;17.394;2022-09-09T14:57:10;19.80;59.30
43561;DHT22;32305;46.410;17.394;2022-09-09T14:59:38;19.90;59.90
43561;DHT22;32305;46.410;17.394;2022-09-09T15:02:05;20.00;60.60
43561;DHT22;32305;46.410;17.394;2022-09-09T15:04:32;20.10;61.00
43561;DHT22;32305;46.410;17.394;2022-09-09T15:06:59;20.10;61.40
43561;DHT22;32305;46.410;17.394;2022-09-09T15:09:26;20.30;61.90
43561;DHT22;32305;46.410;17.394;2022-09-09T15:11:54;20.40;62.10
43561;DHT22;32305;46.410;17.394;2022-09-09T15:14:21;20.50;62.50
43561;DHT22;32305;46.410;17.394;2022-09-09T15:16:52;20.60;62.70
43561;DHT22;32305;46.410;17.394;2022-09-09T15:19:19;20.80;63.00
43561;DHT22;32305;46.410;17.394;2022-09-09T15:21:46;20.90;63.20
43561;DHT22;32305;46.410;17.394;2022-09-09T15:24:13;21.00;63.30
43561;DHT22;32305;46.410;17.394;2022-09-09T15:26:40;21.10;63.50
43561;DHT22;32305;46.410;17.394;2022-09-09T15:29:08;21.20;63.60
43561;DHT22;32305;46.410;17.394;2022-09-09T15:31:36;21.40;63.80
43561;DHT22;32305;46.410;17.394;2022-09-09T15:34:05;21.50;63.70
43561;DHT22;32305;46.410;17.394;2022-09-09T15:36:38;21.60;63.80
43561;DHT22;32305;46.410;17.394;2022-09-09T15:39:08;21.70;63.70
43561;DHT22;32305;46.410;17.394;2022-09-09T15:41:39;21.90;64.00
43561;DHT22;32305;46.410;17.394;2022-09-09T15:44:07;22.00;64.60
43561;DHT22;32305;46.410;17.394;2022-09-09T15:46:37;22.10;64.10
43561;DHT22;32305;46.410;17.394;2022-09-09T15:49:10;22.20;64.10
43561;DHT22;32305;46.410;17.394;2022-09-09T15:51:39;22.30;64.30
43561;DHT22;32305;46.410;17.394;2022-09-09T15:54:11;22.50;64.30
43561;DHT22;32305;46.410;17.394;2022-09-09T15:56:39;22.60;64.40
43561;DHT22;32305;46.410;17.394;2022-09-09T15:59:07;22.60;64.20
43561;DHT22;32305;46.410;17.394;2022-09-09T16:01:34;22.70;64.30
43561;DHT22;32305;46.410;17.394;2022-09-09T16:04:02;22.90;64.90
43561;DHT22;32305;46.410;17.394;2022-09-09T16:06:31;23.00;64.80
43561;DHT22;32305;46.410;17.394;2022-09-09T16:08:59;23.10;64.70
43561;DHT22;32305;46.410;17.394;2022-09-09T16:11:29;23.10;64.70
43561;DHT22;32305;46.410;17.394;2022-09-09T16:13:58;23.30;64.70
43561;DHT22;32305;46.410;17.394;2022-09-09T16:16:28;23.30;64.50
43561;DHT22;32305;46.410;17.394;2022-09-09T16:18:57;23.40;64.50
43561;DHT22;32305;46.410;17.394;2022-09-09T16:21:27;23.50;64.50
43561;DHT22;32305;46.410;17.394;2022-09-09T16:23:58;23.60;64.50
43561;DHT22;32305;46.410;17.394;2022-09-09T16:26:33;23.60;64.40
43561;DHT22;32305;46.410;17.394;2022-09-09T16:29:01;23.70;64.30
43561;DHT22;32305;46.410;17.394;2022-09-09T16:31:29;23.70;63.90
43561;DHT22;32305;46.410;17.394;2022-09-09T16:33:59;23.80;63.70
43561;DHT22;32305;46.410;17.394;2022-09-09T16:36:29;23.80;63.50
43561;DHT22;32305;46.410;17.394;2022-09-09T16:39:06;23.90;63.30
43561;DHT22;32305;46.410;17.394;2022-09-09T16:41:36;23.90;63.10
43561;DHT22;32305;46.410;17.394;2022-09-09T16:44:05;23.90;62.80
43561;DHT22;32305;46.410;17.394;2022-09-09T16:46:35;24.00;62.80
43561;DHT22;32305;46.410;17.394;2022-09-09T16:49:05;24.00;62.60
43561;DHT22;32305;46.410;17.394;2022-09-09T16:51:38;24.10;62.30